Time;durP1;ratioP1;P1;durP2;ratioP2;P2;SDS_P1;SDS_P2;PMS_P1;PMS_P2;Temp;Humidity;BMP_temperature;BMP_pressure;BME280_temperature;BME280_humidity;BME280_pressure;Samples;Min_cycle;Max_cycle;Signal;HPM_P1;HPM_P2
2022/04/07 00:00:55;;;;;;;12.40;4.20;;;9.30;99.90;;;;;;5054888;28;20048;-80
2022/04/07 00:03:20;;;;;;;8.73;3.13;;;9.20;99.90;;;;;;5037271;28;20403;-81
2022/04/07 00:05:46;;;;;;;6.00;3.22;;;9.30;99.90;;;;;;5054559;28;20036;-81
2022/04/07 00:08:12;;;;;;;6.65;2.38;;;9.20;99.90;;;;;;5054960;28;20073;-81
2022/04/07 00:10:37;;;;;;;9.55;2.40;;;9.20;99.90;;;;;;5055219;28;20048;-81
2022/04/07 00:13:03;;;;;;;13.05;3.35;;;9.30;99.90;;;;;;5036952;28;20063;-81
2022/04/07 00:15:30;;;;;;;11.75;2.65;;;9.20;99.90;;;;;;5054665;28;20080;-81
2022/04/07 00:17:57;;;;;;;10.57;3.67;;;9.90;99.90;;;;;;5054590;28;20045;-81
2022/04/07 00:20:24;;;;;;;9.13;2.78;;;9.10;99.90;;;;;;5054667;28;20051;-81
2022/04/07 00:22:50;;;;;;;7.47;2.90;;;9.00;99.90;;;;;;5036071;28;20036;-81
2022/04/07 00:25:16;;;;;;;7.05;2.17;;;9.00;99.90;;;;;;5054428;28;20045;-81
2022/04/07 00:27:42;;;;;;;11.20;2.42;;;8.90;99.90;;;;;;5020378;28;20098;-81
2022/04/07 00:30:13;;;;;;;10.63;3.22;;;8.70;99.90;;;;;;5054787;28;20037;-81
2022/04/07 00:32:44;;;;;;;8.02;1.98;;;8.80;99.90;;;;;;5054693;28;20045;-81
2022/04/07 00:35:10;;;;;;;7.72;2.70;;;8.70;99.90;;;;;;5054543;28;20048;-81
2022/04/07 00:37:36;;;;;;;6.75;2.13;;;8.60;99.90;;;;;;5054379;28;20476;-81
2022/04/07 00:40:03;;;;;;;10.35;2.95;;;8.60;99.90;;;;;;5054428;28;20460;-81
2022/04/07 00:42:29;;;;;;;7.60;2.50;;;8.60;99.90;;;;;;5053952;28;20057;-81
2022/04/07 00:44:54;;;;;;;8.88;3.33;;;8.60;99.90;;;;;;5054078;28;20056;-81
2022/04/07 00:47:22;;;;;;;5.45;2.53;;;8.70;99.90;;;;;;5057770;28;20498;-81
2022/04/07 00:49:47;;;;;;;9.02;2.90;;;8.60;99.90;;;;;;5024260;28;20048;-81
2022/04/07 00:52:14;;;;;;;7.57;3.03;;;8.60;99.90;;;;;;5058018;28;20136;-81
2022/04/07 00:54:39;;;;;;;9.68;2.97;;;8.60;99.90;;;;;;5058691;28;20057;-81
2022/04/07 00:57:06;;;;;;;9.63;3.22;;;8.60;99.90;;;;;;5058331;28;20048;-81
2022/04/07 00:59:34;;;;;;;11.20;3.70;;;8.60;99.90;;;;;;5024368;28;20045;-81
2022/04/07 01:02:00;;;;;;;12.65;4.90;;;8.60;99.90;;;;;;5058112;28;20067;-81
2022/04/07 01:04:26;;;;;;;8.18;3.45;;;8.70;99.90;;;;;;5039779;28;20045;-81
2022/04/07 01:06:52;;;;;;;12.77;3.67;;;8.70;99.90;;;;;;5040714;28;20048;-81
2022/04/07 01:09:19;;;;;;;7.80;3.03;;;8.60;99.90;;;;;;5058344;28;20124;-81
2022/04/07 01:11:45;;;;;;;6.25;2.67;;;8.60;99.90;;;;;;5058693;28;20072;-81
2022/04/07 01:14:11;;;;;;;6.50;2.30;;;8.60;99.90;;;;;;5058161;28;20080;-81
2022/04/07 01:16:36;;;;;;;7.47;2.35;;;8.60;99.90;;;;;;5040899;28;20055;-81
2022/04/07 01:19:02;;;;;;;10.68;3.05;;;8.60;99.90;;;;;;5040213;28;20044;-81
2022/04/07 01:21:32;;;;;;;10.90;1.92;;;8.70;99.90;;;;;;5058955;28;20116;-81
2022/04/07 01:24:29;;;;;;;9.98;2.22;;;8.70;99.90;;;;;;5041344;28;20148;-80
2022/04/07 01:26:55;;;;;;;10.00;2.00;;;8.80;99.90;;;;;;5057223;28;20056;-81
2022/04/07 01:29:25;;;;;;;7.35;2.22;;;8.80;99.90;;;;;;5039763;28;20051;-81
2022/04/07 01:31:51;;;;;;;10.90;2.20;;;8.80;99.90;;;;;;5039940;28;20122;-81
2022/04/07 01:34:18;;;;;;;10.98;2.58;;;8.60;99.90;;;;;;5057554;28;20041;-81
2022/04/07 01:36:46;;;;;;;9.25;3.33;;;8.60;99.90;;;;;;5057254;28;20040;-81
2022/04/07 01:39:13;;;;;;;7.90;2.53;;;8.60;99.90;;;;;;5057506;28;20037;-81
2022/04/07 01:44:32;;;;;;;8.50;2.80;;;8.70;99.90;;;;;;4975129;28;20047;-87
2022/04/07 01:46:58;;;;;;;9.48;3.95;;;8.50;99.90;;;;;;4979252;28;20062;-88
2022/04/07 01:49:24;;;;;;;13.63;4.13;;;8.70;99.90;;;;;;4978875;28;20050;-88
2022/04/07 01:51:50;;;;;;;6.75;4.25;;;8.70;99.90;;;;;;4989048;28;20045;-86
2022/04/07 01:54:16;;;;;;;11.43;5.07;;;8.80;99.90;;;;;;5001828;28;20046;-87
2022/04/07 01:56:46;;;;;;;14.20;5.28;;;8.70;99.90;;;;;;5001856;28;20074;-87
2022/04/07 01:59:13;;;;;;;10.85;5.55;;;8.60;99.90;;;;;;5001012;28;20054;-87
2022/04/07 02:01:39;;;;;;;13.05;4.90;;;8.70;99.90;;;;;;4984846;28;20051;-88
2022/04/07 02:04:04;;;;;;;17.85;4.47;;;8.70;99.90;;;;;;4980134;28;20084;-88
2022/04/07 02:06:33;;;;;;;10.73;4.25;;;8.70;99.90;;;;;;4977309;28;20081;-88
2022/04/07 02:09:00;;;;;;;11.00;4.13;;;8.70;99.90;;;;;;4978213;28;20050;-87
2022/04/07 02:11:26;;;;;;;17.55;4.63;;;8.80;99.90;;;;;;4977890;28;20050;-87
2022/04/07 02:13:54;;;;;;;13.13;3.80;;;8.80;99.90;;;;;;4978071;28;20363;-88
2022/04/07 02:16:22;;;;;;;14.45;4.45;;;8.90;99.90;;;;;;4977617;28;20046;-88
2022/04/07 02:18:48;;;;;;;15.38;3.55;;;8.80;99.90;;;;;;4978043;28;20047;-88
2022/04/07 02:21:14;;;;;;;20.95;4.55;;;9.40;99.90;;;;;;4992651;28;20470;-89
2022/04/07 02:23:42;;;;;;;13.07;4.43;;;8.70;99.90;;;;;;4977226;28;20054;-88
2022/04/07 02:26:12;;;;;;;14.70;4.03;;;8.70;99.90;;;;;;4991924;28;20081;-88
2022/04/07 02:28:38;;;;;;;14.57;3.72;;;8.60;99.90;;;;;;4976215;28;20074;-86
2022/04/07 02:31:04;;;;;;;19.13;4.80;;;8.60;99.90;;;;;;4959697;28;20058;-88
2022/04/07 02:33:34;;;;;;;31.77;6.60;;;8.60;99.90;;;;;;4975381;28;20137;-87
2022/04/07 02:36:01;;;;;;;14.75;4.55;;;8.60;99.90;;;;;;4976119;28;20047;-87
2022/04/07 02:38:26;;;;;;;17.90;5.80;;;8.60;99.90;;;;;;4976006;28;20524;-88
2022/04/07 02:40:52;;;;;;;17.85;4.60;;;8.60;99.90;;;;;;4975727;28;20074;-87
2022/04/07 02:43:18;;;;;;;12.85;3.53;;;8.60;99.90;;;;;;4990159;28;20082;-87
2022/04/07 02:45:44;;;;;;;11.25;4.32;;;8.70;99.90;;;;;;4996351;28;20061;-87
2022/04/07 02:48:10;;;;;;;13.60;2.78;;;8.60;99.90;;;;;;5010962;28;20042;-88
2022/04/07 02:50:35;;;;;;;13.52;4.53;;;8.60;99.90;;;;;;4978615;28;20042;-87
2022/04/07 02:53:01;;;;;;;13.77;4.57;;;8.60;99.90;;;;;;4996102;28;20115;-87
2022/04/07 02:55:27;;;;;;;16.05;4.18;;;8.50;99.90;;;;;;4996045;28;20043;-87
2022/04/07 02:57:53;;;;;;;19.02;3.97;;;8.60;99.90;;;;;;4995974;28;20481;-87
2022/04/07 03:00:18;;;;;;;21.85;4.40;;;8.60;99.90;;;;;;4996197;28;20101;-87
2022/04/07 03:02:44;;;;;;;11.60;3.13;;;8.60;99.90;;;;;;4996078;28;20096;-89
2022/04/07 03:05:11;;;;;;;12.70;3.60;;;8.70;99.90;;;;;;4994615;28;20048;-87
2022/04/07 03:07:36;;;;;;;11.70;3.42;;;8.70;99.90;;;;;;4996186;28;20436;-87
2022/04/07 03:10:02;;;;;;;13.48;3.92;;;8.70;99.90;;;;;;4995026;28;20038;-88
2022/04/07 03:12:34;;;;;;;14.75;4.43;;;8.80;99.90;;;;;;4996011;28;20042;-88
2022/04/07 03:15:00;;;;;;;11.73;4.35;;;9.10;99.90;;;;;;4995055;28;20121;-88
2022/04/07 03:17:26;;;;;;;14.15;3.45;;;8.80;99.90;;;;;;4995584;28;20439;-87
2022/04/07 03:19:51;;;;;;;13.68;2.65;;;8.80;99.90;;;;;;4994773;28;20077;-88
2022/04/07 03:22:18;;;;;;;20.48;4.70;;;8.80;99.90;;;;;;4996315;28;20042;-88
2022/04/07 03:24:45;;;;;;;9.75;3.35;;;8.70;99.90;;;;;;4995455;28;20049;-89
2022/04/07 03:27:11;;;;;;;17.15;4.05;;;8.80;99.90;;;;;;5011416;28;20143;-88
2022/04/07 03:29:36;;;;;;;17.05;4.10;;;8.50;99.90;;;;;;4996875;28;20074;-88
2022/04/07 03:32:04;;;;;;;13.35;3.92;;;8.70;99.90;;;;;;4979870;28;20057;-87
2022/04/07 03:34:34;;;;;;;12.23;3.42;;;8.50;99.90;;;;;;4996479;28;20054;-88
2022/04/07 03:37:00;;;;;;;21.75;5.22;;;8.30;99.90;;;;;;5016130;28;20052;-87
2022/04/07 03:39:26;;;;;;;11.13;3.85;;;8.70;99.90;;;;;;5001015;28;20085;-87
2022/04/07 03:41:52;;;;;;;28.58;5.78;;;8.70;99.90;;;;;;5002408;28;20029;-89
2022/04/07 03:44:18;;;;;;;14.13;4.15;;;9.10;99.90;;;;;;5016192;28;20114;-88
2022/04/07 03:46:44;;;;;;;7.93;2.25;;;8.90;99.90;;;;;;5034205;28;20039;-86
2022/04/07 03:49:10;;;;;;;9.48;2.70;;;9.00;99.90;;;;;;5019517;28;20033;-87
2022/04/07 03:51:35;;;;;;;19.38;4.15;;;8.30;99.90;;;;;;5019374;28;20078;-86
2022/04/07 03:54:01;;;;;;;11.13;3.65;;;8.40;99.90;;;;;;5019377;28;20090;-87
2022/04/07 03:56:26;;;;;;;9.93;3.67;;;8.40;99.90;;;;;;5018710;28;20089;-88
2022/04/07 03:58:53;;;;;;;9.45;2.50;;;9.60;99.90;;;;;;5019146;28;20030;-87
2022/04/07 04:01:19;;;;;;;15.98;3.08;;;8.80;99.90;;;;;;5019422;28;20065;-88
2022/04/07 04:03:45;;;;;;;14.38;3.38;;;8.40;99.90;;;;;;5019196;28;20058;-88
2022/04/07 04:06:10;;;;;;;14.95;2.40;;;8.80;99.90;;;;;;5017526;28;20489;-88
2022/04/07 04:08:36;;;;;;;14.25;2.97;;;8.30;99.90;;;;;;5017814;28;20026;-87
2022/04/07 04:11:02;;;;;;;11.40;3.13;;;8.40;99.90;;;;;;5019138;28;20077;-87
2022/04/07 04:13:29;;;;;;;17.17;3.95;;;8.40;99.90;;;;;;5017912;28;20057;-87
2022/04/07 04:15:58;;;;;;;13.88;2.90;;;8.50;99.90;;;;;;5014493;28;20053;-88
2022/04/07 04:18:24;;;;;;;10.35;3.05;;;9.30;99.90;;;;;;5016808;28;20078;-88
2022/04/07 04:20:49;;;;;;;17.63;4.05;;;8.60;99.90;;;;;;5010561;28;20046;-86
2022/04/07 04:23:15;;;;;;;15.60;3.00;;;8.70;99.90;;;;;;5020134;28;20053;-89
2022/04/07 04:25:40;;;;;;;20.70;4.32;;;8.60;99.90;;;;;;5002760;28;20042;-88
2022/04/07 04:28:06;;;;;;;22.10;4.57;;;8.60;99.90;;;;;;5018958;28;20129;-88
2022/04/07 04:30:32;;;;;;;21.88;5.55;;;8.60;99.90;;;;;;5003278;28;20046;-88
2022/04/07 04:33:02;;;;;;;16.65;3.90;;;8.60;99.90;;;;;;5003312;28;20046;-89
2022/04/07 04:35:28;;;;;;;26.25;5.18;;;8.60;99.90;;;;;;5002415;28;20046;-88
2022/04/07 04:37:56;;;;;;;25.00;5.32;;;9.10;99.90;;;;;;5001627;28;20171;-88
2022/04/07 04:40:22;;;;;;;22.23;5.40;;;8.50;99.90;;;;;;4998077;28;20390;-88
2022/04/07 04:42:47;;;;;;;21.17;4.53;;;8.60;99.90;;;;;;4998735;28;20117;-88
2022/04/07 04:45:13;;;;;;;19.83;5.22;;;8.40;99.90;;;;;;4998078;28;20043;-88
2022/04/07 04:47:40;;;;;;;23.02;5.38;;;8.40;99.90;;;;;;4999389;28;20096;-88
2022/04/07 04:50:06;;;;;;;30.90;6.85;;;8.30;99.90;;;;;;4999194;28;20046;-88
2022/04/07 04:52:35;;;;;;;19.25;5.18;;;8.30;99.90;;;;;;4981355;28;20046;-88
2022/04/07 04:55:01;;;;;;;34.38;6.25;;;8.30;99.90;;;;;;4999248;28;20069;-88
2022/04/07 04:57:47;;;;;;;20.00;4.55;;;8.30;99.90;;;;;;5014910;28;20051;-88
2022/04/07 05:00:16;;;;;;;34.53;6.47;;;8.30;99.90;;;;;;5017214;28;20042;-88
2022/04/07 05:02:42;;;;;;;18.25;3.08;;;8.30;99.90;;;;;;5000886;28;20097;-88
2022/04/07 05:05:08;;;;;;;17.25;2.85;;;8.30;99.90;;;;;;5001191;28;20103;-87
2022/04/07 05:07:33;;;;;;;10.23;2.42;;;8.20;99.90;;;;;;5000837;28;20130;-89
2022/04/07 05:10:00;;;;;;;17.48;2.55;;;8.00;99.90;;;;;;4998084;28;20078;-88
2022/04/07 05:12:29;;;;;;;7.20;2.65;;;7.80;99.90;;;;;;4998364;28;20050;-88
2022/04/07 05:14:58;;;;;;;12.65;2.75;;;7.80;99.90;;;;;;5014168;28;20444;-88
2022/04/07 05:17:24;;;;;;;17.77;3.40;;;7.70;99.90;;;;;;4997328;28;20049;-88
2022/04/07 05:19:50;;;;;;;21.20;4.72;;;7.70;99.90;;;;;;4998483;28;20046;-89
2022/04/07 05:22:15;;;;;;;23.98;5.88;;;7.70;99.90;;;;;;5013001;28;20057;-88
2022/04/07 05:24:41;;;;;;;23.00;3.53;;;7.80;99.90;;;;;;5001199;28;20046;-88
2022/04/07 05:27:06;;;;;;;27.88;7.25;;;7.80;99.90;;;;;;5014169;28;20046;-88
2022/04/07 05:29:32;;;;;;;21.75;3.53;;;7.90;99.90;;;;;;5013767;28;20457;-88
2022/04/07 05:31:57;;;;;;;17.73;3.83;;;7.90;99.90;;;;;;4997822;28;20570;-88
2022/04/07 05:34:23;;;;;;;13.77;3.25;;;7.80;99.90;;;;;;4996678;28;20121;-88
2022/04/07 05:36:48;;;;;;;12.32;3.05;;;7.70;99.90;;;;;;4998580;28;20050;-88
2022/04/07 05:39:14;;;;;;;15.77;3.40;;;7.60;99.90;;;;;;4998883;28;20070;-88
2022/04/07 05:41:40;;;;;;;24.98;3.83;;;7.50;99.90;;;;;;4997144;28;20088;-88
2022/04/07 05:44:06;;;;;;;13.55;1.70;;;7.40;99.90;;;;;;4997912;28;20054;-88
2022/04/07 05:46:31;;;;;;;10.25;1.00;;;7.20;99.90;;;;;;5001674;28;20042;-88
2022/04/07 05:48:57;;;;;;;4.40;1.02;;;6.60;99.90;;;;;;5002893;28;20101;-88
2022/04/07 05:51:22;;;;;;;8.27;1.25;;;6.10;99.90;;;;;;5016023;28;20038;-86
2022/04/07 05:53:48;;;;;;;4.32;0.90;;;5.90;99.90;;;;;;5021524;28;20053;-87
2022/04/07 05:56:14;;;;;;;4.65;0.90;;;5.70;99.90;;;;;;5037274;28;20030;-87
2022/04/07 05:58:39;;;;;;;5.45;0.85;;;5.70;99.90;;;;;;5021476;28;20082;-86
2022/04/07 06:01:05;;;;;;;9.00;2.13;;;5.60;99.90;;;;;;5011042;28;20042;-88
2022/04/07 06:03:34;;;;;;;5.72;0.95;;;5.60;99.90;;;;;;4982655;28;20125;-88
2022/04/07 06:06:02;;;;;;;4.57;1.10;;;6.00;99.90;;;;;;4997511;28;20073;-89
2022/04/07 06:08:28;;;;;;;13.27;1.55;;;5.50;99.90;;;;;;5013707;28;20362;-88
2022/04/07 06:10:54;;;;;;;15.93;1.45;;;5.60;99.90;;;;;;4997390;28;20051;-88
2022/04/07 06:13:22;;;;;;;8.50;1.95;;;5.50;99.90;;;;;;4997733;28;20072;-87
2022/04/07 06:15:48;;;;;;;11.60;2.92;;;5.50;99.90;;;;;;4997530;28;20521;-87
2022/04/07 06:18:16;;;;;;;10.98;1.67;;;5.60;99.90;;;;;;4996482;28;20061;-87
2022/04/07 06:20:42;;;;;;;5.90;1.35;;;5.60;99.90;;;;;;4996271;28;20851;-87
2022/04/07 06:23:09;;;;;;;16.05;2.03;;;5.50;99.90;;;;;;4996266;28;20117;-88
2022/04/07 06:25:35;;;;;;;6.80;1.45;;;5.50;99.90;;;;;;4996527;28;20050;-88
2022/04/07 06:28:02;;;;;;;7.88;1.85;;;5.50;99.90;;;;;;4994754;28;20134;-87
2022/04/07 06:30:28;;;;;;;11.55;2.00;;;5.50;99.90;;;;;;4994477;28;20085;-87
2022/04/07 06:32:57;;;;;;;10.55;1.38;;;5.50;99.90;;;;;;4996024;28;20046;-86
2022/04/07 06:35:23;;;;;;;8.48;1.10;;;5.40;99.90;;;;;;5011245;28;20050;-87
2022/04/07 06:37:54;;;;;;;4.75;0.90;;;5.40;99.90;;;;;;4996514;28;20350;-89
2022/04/07 06:40:24;;;;;;;10.77;1.30;;;5.30;99.90;;;;;;4994923;28;20046;-87
2022/04/07 06:42:52;;;;;;;4.43;0.80;;;5.20;99.90;;;;;;4995528;28;20061;-88
2022/04/07 06:45:18;;;;;;;5.32;1.48;;;5.20;99.90;;;;;;4996221;28;20046;-88
2022/04/07 06:47:44;;;;;;;0.93;0.50;;;5.10;99.90;;;;;;4996740;28;20053;-88
2022/04/07 06:50:12;;;;;;;3.47;1.00;;;5.10;99.90;;;;;;4995324;28;20042;-88
2022/04/07 06:52:41;;;;;;;3.92;0.85;;;5.10;99.90;;;;;;4995017;28;20050;-88
2022/04/07 06:55:08;;;;;;;5.07;0.70;;;5.20;99.90;;;;;;4996196;28;20436;-89
2022/04/07 06:57:48;;;;;;;4.68;1.00;;;5.10;99.90;;;;;;5011164;28;20046;-89
2022/04/07 07:00:14;;;;;;;4.05;0.77;;;5.20;99.90;;;;;;4995993;28;20536;-88
2022/04/07 07:02:40;;;;;;;6.43;0.65;;;5.20;99.90;;;;;;4996592;28;20473;-88
2022/04/07 07:05:06;;;;;;;3.60;0.98;;;5.20;99.90;;;;;;4995759;28;20051;-88
2022/04/07 07:07:32;;;;;;;2.30;0.63;;;5.20;99.90;;;;;;4996969;28;20042;-89
2022/04/07 07:09:57;;;;;;;3.40;0.60;;;5.20;99.90;;;;;;5012243;28;20039;-89
2022/04/07 07:12:23;;;;;;;3.47;1.20;;;5.30;99.90;;;;;;4996426;28;20484;-88
2022/04/07 07:14:48;;;;;;;3.53;0.88;;;5.30;99.90;;;;;;5011338;28;20497;-88
2022/04/07 07:17:14;;;;;;;5.03;1.00;;;4.40;99.90;;;;;;4996004;28;20090;-90
2022/04/07 07:19:39;;;;;;;4.03;0.70;;;5.30;99.90;;;;;;4996016;28;20046;-88
2022/04/07 07:22:05;;;;;;;1.70;0.60;;;5.30;99.90;;;;;;4996325;28;20043;-88
2022/04/07 07:24:34;;;;;;;5.53;0.60;;;5.30;99.90;;;;;;4996094;28;20121;-88
2022/04/07 07:27:00;;;;;;;2.95;0.45;;;5.30;99.90;;;;;;4993769;28;20393;-88
2022/04/07 07:29:26;;;;;;;8.20;2.08;;;5.30;99.90;;;;;;4995233;28;20046;-89
2022/04/07 07:31:51;;;;;;;4.88;0.88;;;5.40;99.90;;;;;;4995366;28;20057;-88
2022/04/07 07:34:17;;;;;;;6.70;1.20;;;5.40;99.90;;;;;;4996152;28;20050;-89
2022/04/07 07:36:44;;;;;;;4.78;0.60;;;5.30;99.90;;;;;;5017607;28;20038;-88
2022/04/07 07:39:10;;;;;;;6.80;1.00;;;5.30;99.90;;;;;;5001363;28;20038;-88
2022/04/07 07:41:40;;;;;;;1.85;0.60;;;5.30;99.90;;;;;;4995364;28;20054;-88
2022/04/07 07:44:09;;;;;;;9.60;1.98;;;5.30;99.90;;;;;;4994280;28;20054;-88
2022/04/07 07:46:34;;;;;;;3.72;0.80;;;5.30;99.90;;;;;;4994122;28;20507;-88
2022/04/07 07:49:06;;;;;;;3.15;0.70;;;5.30;99.90;;;;;;4993831;28;20414;-87
2022/04/07 07:51:32;;;;;;;1.48;0.50;;;5.30;99.90;;;;;;4994991;28;20651;-89
2022/04/07 07:53:57;;;;;;;6.63;2.10;;;5.40;99.90;;;;;;5008363;28;20072;-88
2022/04/07 07:56:23;;;;;;;7.13;0.82;;;5.40;99.90;;;;;;5018122;28;20089;-87
2022/04/07 07:58:48;;;;;;;3.75;1.00;;;5.50;99.90;;;;;;5017534;28;20082;-88
2022/04/07 08:01:14;;;;;;;7.25;1.02;;;5.60;99.90;;;;;;5019092;28;20057;-88
2022/04/07 08:03:39;;;;;;;3.58;0.60;;;5.60;99.90;;;;;;5019021;28;20046;-87
2022/04/07 08:06:05;;;;;;;1.92;0.65;;;5.60;99.90;;;;;;5003040;28;20069;-88
2022/04/07 08:08:31;;;;;;;6.35;1.58;;;5.70;99.90;;;;;;4994871;28;20046;-88
2022/04/07 08:10:56;;;;;;;6.70;1.85;;;6.00;99.90;;;;;;4992864;28;20754;-88
2022/04/07 08:13:22;;;;;;;5.40;2.13;;;6.70;99.90;;;;;;4994496;28;20081;-88
2022/04/07 08:15:48;;;;;;;2.45;0.95;;;6.10;99.90;;;;;;4994909;28;20050;-88
2022/04/07 08:18:16;;;;;;;6.75;1.02;;;5.60;99.90;;;;;;4995462;28;20046;-87
2022/04/07 08:20:42;;;;;;;4.85;1.08;;;6.00;99.90;;;;;;4995861;28;20047;-88
2022/04/07 08:23:09;;;;;;;3.42;0.98;;;6.00;99.90;;;;;;4995731;28;20053;-88
2022/04/07 08:25:35;;;;;;;3.40;0.70;;;5.90;99.90;;;;;;4995858;28;20081;-88
2022/04/07 08:28:00;;;;;;;8.15;1.10;;;5.90;99.90;;;;;;5011383;28;20393;-88
2022/04/07 08:30:26;;;;;;;3.45;0.60;;;6.10;99.90;;;;;;4995877;28;20049;-88
2022/04/07 08:32:52;;;;;;;5.72;0.82;;;5.80;99.90;;;;;;4996120;28;20043;-88
2022/04/07 08:35:18;;;;;;;5.10;0.90;;;6.40;99.90;;;;;;4996011;28;20070;-87
2022/04/07 08:37:47;;;;;;;3.83;0.73;;;6.50;99.90;;;;;;5010138;28;20034;-87
2022/04/07 08:40:18;;;;;;;3.35;0.88;;;7.40;99.90;;;;;;4994912;28;20143;-87
2022/04/07 08:42:46;;;;;;;6.88;1.20;;;8.00;99.90;;;;;;4995568;28;20055;-87
2022/04/07 08:45:12;;;;;;;9.30;1.83;;;8.20;99.90;;;;;;4997987;28;20760;-88
2022/04/07 08:47:39;;;;;;;1.65;0.60;;;7.90;99.90;;;;;;5002364;28;20046;-88
2022/04/07 08:50:05;;;;;;;7.57;1.45;;;8.00;99.90;;;;;;5003559;28;20486;-88
2022/04/07 08:52:35;;;;;;;6.15;1.20;;;8.50;99.90;;;;;;5003516;28;20046;-89
2022/04/07 08:55:01;;;;;;;4.43;1.10;;;8.20;99.90;;;;;;5004632;28;20061;-88
2022/04/07 08:57:31;;;;;;;4.88;1.15;;;9.20;99.90;;;;;;5018876;28;20062;-86
2022/04/07 08:59:56;;;;;;;8.00;3.72;;;9.20;99.90;;;;;;5021130;28;20085;-87
2022/04/07 09:02:22;;;;;;;8.82;1.30;;;9.80;99.90;;;;;;5021379;28;20047;-88
2022/04/07 09:04:49;;;;;;;4.60;0.70;;;10.30;99.90;;;;;;5004546;28;20039;-88
2022/04/07 09:07:15;;;;;;;9.45;1.35;;;10.40;99.90;;;;;;5006747;28;20030;-88
2022/04/07 09:09:41;;;;;;;4.18;0.70;;;9.70;99.90;;;;;;5009060;28;20038;-87
2022/04/07 09:12:08;;;;;;;8.40;1.63;;;9.70;99.90;;;;;;5029376;28;20050;-88
2022/04/07 09:14:35;;;;;;;4.65;0.90;;;10.10;99.90;;;;;;5028917;28;20046;-87
2022/04/07 09:17:01;;;;;;;4.28;0.93;;;10.40;99.90;;;;;;5007221;28;20057;-87
2022/04/07 09:19:29;;;;;;;3.05;1.00;;;10.10;99.90;;;;;;5009714;28;20102;-87
2022/04/07 09:22:11;;;;;;;8.10;1.33;;;9.90;99.90;;;;;;5008190;28;20098;-86
2022/04/07 09:24:42;;;;;;;2.58;0.70;;;9.80;99.90;;;;;;5005451;28;21013;-86
2022/04/07 09:27:10;;;;;;;9.20;1.58;;;9.80;99.90;;;;;;5005184;28;20420;-86
2022/04/07 09:29:46;;;;;;;7.82;1.30;;;9.70;99.90;;;;;;4998953;28;20587;-86
2022/04/07 09:32:23;;;;;;;6.43;1.25;;;9.80;99.90;;;;;;4998263;28;20049;-87
2022/04/07 09:34:56;;;;;;;5.45;1.38;;;10.30;99.90;;;;;;4997620;28;20078;-88
2022/04/07 09:37:23;;;;;;;4.35;1.23;;;10.40;99.90;;;;;;4996035;28;20532;-87
2022/04/07 09:40:01;;;;;;;4.65;1.40;;;10.30;99.90;;;;;;4997165;28;20050;-87
2022/04/07 09:42:27;;;;;;;5.95;1.23;;;10.30;99.90;;;;;;4996513;28;20054;-86
2022/04/07 09:44:59;;;;;;;8.57;1.40;;;10.20;99.90;;;;;;5012144;28;20401;-87
2022/04/07 09:47:37;;;;;;;6.63;1.60;;;10.10;99.90;;;;;;4997094;28;20085;-88
2022/04/07 09:50:04;;;;;;;10.88;2.47;;;10.10;99.90;;;;;;4996591;28;20085;-88
2022/04/07 09:52:30;;;;;;;7.35;1.25;;;10.30;99.90;;;;;;4999652;28;20050;-88
2022/04/07 09:55:06;;;;;;;8.82;1.67;;;10.70;99.90;;;;;;5002557;28;20046;-87
2022/04/07 09:57:33;;;;;;;8.55;1.35;;;11.30;99.90;;;;;;4988804;28;20089;-88
2022/04/07 10:00:03;;;;;;;13.10;2.10;;;11.50;99.90;;;;;;5004806;28;20033;-86
2022/04/07 10:02:32;;;;;;;8.98;1.98;;;11.20;99.90;;;;;;5021151;28;20034;-87
2022/04/07 10:04:59;;;;;;;9.05;1.33;;;11.00;99.90;;;;;;5021204;28;20054;-87
2022/04/07 10:07:25;;;;;;;10.15;2.10;;;10.90;99.90;;;;;;5021027;28;20155;-87
2022/04/07 10:09:51;;;;;;;10.80;2.30;;;10.80;99.90;;;;;;5018746;28;20046;-87
2022/04/07 10:12:18;;;;;;;9.18;1.88;;;10.70;99.90;;;;;;5011985;28;20046;-88
2022/04/07 10:14:44;;;;;;;5.22;1.20;;;10.30;99.90;;;;;;4997056;28;20058;-86
2022/04/07 10:17:13;;;;;;;7.18;1.55;;;10.00;99.90;;;;;;4996599;28;20111;-87
2022/04/07 10:19:51;;;;;;;10.43;2.00;;;9.90;99.90;;;;;;5010663;28;20073;-88
2022/04/07 10:22:47;;;;;;;10.73;2.92;;;10.20;99.90;;;;;;4996496;28;20046;-88
2022/04/07 10:25:14;;;;;;;10.65;2.70;;;10.50;99.90;;;;;;4997293;28;20042;-88
2022/04/07 10:27:58;;;;;;;9.00;1.40;;;11.00;99.90;;;;;;5012314;28;20054;-86
2022/04/07 10:30:29;;;;;;;5.32;1.50;;;12.40;99.90;;;;;;4997125;28;20133;-86
2022/04/07 10:32:58;;;;;;;5.85;1.33;;;11.10;99.90;;;;;;4995975;28;20050;-87
2022/04/07 10:36:12;;;;;;;8.30;1.85;;;9.90;99.90;;;;;;4999752;28;20058;-88
2022/04/07 10:38:40;;;;;;;13.48;1.92;;;9.20;99.90;;;;;;5008239;28;20050;-86
2022/04/07 10:41:09;;;;;;;14.25;3.30;;;9.30;99.90;;;;;;5013149;28;20076;-87
2022/04/07 10:43:40;;;;;;;9.23;1.80;;;9.00;99.90;;;;;;5015296;28;20086;-87
2022/04/07 10:46:18;;;;;;;6.72;1.45;;;8.70;99.90;;;;;;5016541;28;20038;-87
2022/04/07 10:48:45;;;;;;;11.65;2.60;;;9.00;99.90;;;;;;5016549;28;20081;-87
2022/04/07 10:51:11;;;;;;;12.90;2.78;;;9.20;99.90;;;;;;5033440;28;20053;-87
2022/04/07 10:53:59;;;;;;;8.88;1.67;;;9.50;99.90;;;;;;5019050;28;20049;-85
2022/04/07 10:56:39;;;;;;;11.25;1.58;;;10.10;99.90;;;;;;5012579;28;20058;-86
2022/04/07 10:59:34;;;;;;;14.30;1.50;;;10.10;99.90;;;;;;5027664;28;20058;-85
2022/04/07 11:02:11;;;;;;;9.25;1.27;;;9.60;99.90;;;;;;5010940;28;20053;-86
2022/04/07 11:04:37;;;;;;;;;;;9.30;99.90;;;;;;4999455;28;20089;-87
2022/04/07 11:07:13;;;;;;;9.63;1.35;;;9.30;99.90;;;;;;4995602;28;19921;-87
2022/04/07 11:09:45;;;;;;;8.20;1.55;;;9.20;99.90;;;;;;4995684;28;20062;-87
2022/04/07 11:12:37;;;;;;;15.43;2.03;;;9.30;99.90;;;;;;4996631;28;20050;-87
2022/04/07 11:15:03;;;;;;;20.30;1.95;;;9.00;99.90;;;;;;4996918;28;20054;-88
2022/04/07 11:17:46;;;;;;;6.80;1.88;;;8.50;99.90;;;;;;5011995;28;20449;-87
2022/04/07 11:20:28;;;;;;;7.80;1.67;;;7.90;99.90;;;;;;4997165;28;20081;-86
2022/04/07 11:23:13;;;;;;;19.48;4.13;;;7.50;99.90;;;;;;5012095;28;20034;-88
2022/04/07 11:25:43;;;;;;;15.70;2.22;;;7.50;99.90;;;;;;4996565;28;20046;-88
2022/04/07 11:28:25;;;;;;;14.02;2.67;;;7.50;99.90;;;;;;4996420;28;20042;-88
2022/04/07 11:31:04;;;;;;;16.80;2.08;;;7.80;99.90;;;;;;4996068;28;20050;-87
2022/04/07 11:33:38;;;;;;;11.07;1.92;;;8.20;99.90;;;;;;5012147;28;20038;-88
2022/04/07 11:36:04;;;;;;;15.23;2.90;;;8.60;99.90;;;;;;4995610;28;20485;-87
2022/04/07 11:38:36;;;;;;;17.67;4.05;;;9.00;99.90;;;;;;4997746;28;20056;-87
2022/04/07 11:41:12;;;;;;;13.00;3.05;;;9.50;99.90;;;;;;4996355;28;20046;-87
2022/04/07 11:43:43;;;;;;;16.58;3.40;;;10.20;99.90;;;;;;4996688;28;20054;-87
2022/04/07 11:46:13;;;;;;;13.25;2.58;;;10.70;99.90;;;;;;5011504;28;20437;-87
2022/04/07 11:48:44;;;;;;;13.30;2.88;;;11.00;99.90;;;;;;4995509;28;20050;-88
2022/04/07 11:51:17;;;;;;;9.70;2.33;;;11.30;99.90;;;;;;4981234;28;20496;-87
2022/04/07 11:53:52;;;;;;;14.50;2.50;;;11.20;99.90;;;;;;4996187;28;20121;-88
2022/04/07 11:56:22;;;;;;;18.25;3.47;;;10.90;99.90;;;;;;4996814;28;20050;-87
2022/04/07 11:59:07;;;;;;;13.27;3.15;;;10.70;99.90;;;;;;4999739;28;20054;-88
2022/04/07 12:01:36;;;;;;;16.33;4.25;;;10.80;99.90;;;;;;4999377;28;20051;-86
2022/04/07 12:04:06;;;;;;;18.98;2.95;;;10.90;99.90;;;;;;5004548;28;20076;-85
2022/04/07 12:06:33;;;;;;;10.25;2.30;;;10.90;99.90;;;;;;5034811;28;20058;-87
2022/04/07 12:09:01;;;;;;;14.30;2.67;;;10.90;99.90;;;;;;5019152;28;20042;-87
2022/04/07 12:11:30;;;;;;;15.75;3.72;;;11.80;99.90;;;;;;5019151;28;20022;-86
2022/04/07 12:14:02;;;;;;;10.00;2.15;;;11.20;99.90;;;;;;5018229;28;20039;-86
2022/04/07 12:16:28;;;;;;;13.15;2.72;;;11.50;99.90;;;;;;5003402;28;20045;-87
2022/04/07 12:19:02;;;;;;;9.57;2.58;;;12.00;99.90;;;;;;4995765;28;20378;-86
2022/04/07 12:21:49;;;;;;;13.95;2.60;;;12.70;99.90;;;;;;4995504;28;20078;-87
2022/04/07 12:24:14;;;;;;;10.68;2.60;;;12.70;99.90;;;;;;4995052;28;20042;-88
2022/04/07 12:26:51;;;;;;;14.13;2.72;;;12.60;99.90;;;;;;4995668;28;20084;-86
2022/04/07 12:29:17;;;;;;;;;;;12.30;99.90;;;;;;4996108;28;20042;-88
2022/04/07 12:31:56;;;;;;;13.32;2.33;;;11.90;99.90;;;;;;4993853;28;19988;-88
2022/04/07 12:34:21;;;;;;;10.15;2.42;;;11.70;99.90;;;;;;5009908;28;20061;-87
2022/04/07 12:36:47;;;;;;;15.40;2.63;;;11.90;99.90;;;;;;5009876;28;20469;-87
2022/04/07 12:39:20;;;;;;;10.80;2.50;;;12.30;99.90;;;;;;5009854;28;20455;-87
2022/04/07 12:41:52;;;;;;;6.32;1.75;;;12.10;99.90;;;;;;4995561;28;20129;-87
2022/04/07 12:44:22;;;;;;;7.80;1.10;;;11.80;99.90;;;;;;4998203;28;20051;-86
2022/04/07 12:46:50;;;;;;;7.38;1.23;;;10.60;99.90;;;;;;4998970;28;20046;-86
2022/04/07 12:49:23;;;;;;;3.78;1.02;;;9.50;99.90;;;;;;4998619;28;20112;-86
2022/04/07 12:52:03;;;;;;;7.13;0.68;;;8.90;99.90;;;;;;4998682;28;20050;-86
2022/04/07 12:54:29;;;;;;;4.57;1.20;;;8.60;99.90;;;;;;4998514;28;20049;-87
2022/04/07 12:57:10;;;;;;;5.70;1.08;;;8.40;99.90;;;;;;5013994;28;20050;-87
2022/04/07 12:59:37;;;;;;;8.38;1.38;;;7.90;99.90;;;;;;4998881;28;20046;-87